createdAt,value
2023-03-10T00:00:36.911Z,14.65
2023-03-10T00:03:04.302Z,17.05
2023-03-10T00:05:31.228Z,21.48
2023-03-10T00:07:58.108Z,24.85
2023-03-10T00:10:24.966Z,32.28
2023-03-10T00:15:18.609Z,25.85
2023-03-10T00:17:45.550Z,25.55
2023-03-10T00:20:13.151Z,24.40
2023-03-10T00:22:41.949Z,32.90
2023-03-10T00:25:10.411Z,18.73
2023-03-10T00:27:37.404Z,23.12
2023-03-10T00:30:05.102Z,20.00
2023-03-10T00:32:32.071Z,30.60
2023-03-10T00:34:58.948Z,23.90
2023-03-10T00:37:25.845Z,22.75
2023-03-10T00:39:53.551Z,16.75
2023-03-10T00:42:20.687Z,12.00
2023-03-10T00:44:47.638Z,15.48
2023-03-10T00:47:14.626Z,11.43
2023-03-10T00:49:41.624Z,7.80
2023-03-10T00:52:08.516Z,9.15
2023-03-10T00:54:35.444Z,8.20
2023-03-10T00:57:02.451Z,6.00
2023-03-10T00:59:34.921Z,6.20
2023-03-10T01:02:07.483Z,8.07
2023-03-10T01:04:34.405Z,6.62
2023-03-10T01:07:01.355Z,6.95
2023-03-10T01:09:28.206Z,5.40
2023-03-10T01:14:21.745Z,6.93
2023-03-10T01:16:48.596Z,7.12
2023-03-10T01:19:15.501Z,10.45
2023-03-10T01:21:42.461Z,6.30
2023-03-10T01:24:15.307Z,5.68
2023-03-10T01:26:42.180Z,8.10
2023-03-10T01:29:09.024Z,6.18
2023-03-10T01:34:02.643Z,5.35
2023-03-10T01:38:56.873Z,6.30
2023-03-10T01:41:23.811Z,7.53
2023-03-10T01:43:53.178Z,6.32
2023-03-10T01:46:39.903Z,7.00
2023-03-10T01:49:18.069Z,7.40
2023-03-10T01:51:52.180Z,8.15
2023-03-10T01:54:23.496Z,16.35
2023-03-10T01:56:51.343Z,21.95
2023-03-10T01:59:18.744Z,23.38
2023-03-10T02:01:46.086Z,24.23
2023-03-10T02:04:38.001Z,18.70
2023-03-10T02:07:06.763Z,18.52
2023-03-10T02:09:36.926Z,16.08
2023-03-10T02:12:05.193Z,12.07
2023-03-10T02:14:32.851Z,14.27
2023-03-10T02:17:00.000Z,12.13
2023-03-10T02:19:56.433Z,11.60
2023-03-10T02:22:23.396Z,16.48
2023-03-10T02:24:52.468Z,32.70
2023-03-10T02:27:32.177Z,28.15
2023-03-10T02:30:19.521Z,19.30
2023-03-10T02:32:50.022Z,16.87
2023-03-10T02:35:17.225Z,12.52
2023-03-10T02:37:44.245Z,11.73
2023-03-10T02:40:32.571Z,11.43
2023-03-10T02:43:13.566Z,14.10
2023-03-10T02:45:42.056Z,12.43
2023-03-10T02:48:10.254Z,20.42
2023-03-10T02:50:39.104Z,20.52
2023-03-10T02:53:14.401Z,20.75
2023-03-10T02:55:41.362Z,30.88
2023-03-10T02:58:08.412Z,30.95
2023-03-10T03:00:39.733Z,24.08
2023-03-10T03:03:07.462Z,19.98
2023-03-10T03:05:34.354Z,13.20
2023-03-10T03:08:01.363Z,11.20
2023-03-10T03:10:28.705Z,20.00
2023-03-10T03:12:56.768Z,18.55
2023-03-10T03:15:24.292Z,16.37
2023-03-10T03:17:51.487Z,12.40
2023-03-10T03:20:18.461Z,11.20
2023-03-10T03:22:45.906Z,12.60
2023-03-10T03:25:15.999Z,11.07
2023-03-10T03:27:43.254Z,11.73
2023-03-10T03:30:15.746Z,12.57
2023-03-10T03:32:42.760Z,11.60
2023-03-10T03:35:16.011Z,10.35
2023-03-10T03:37:43.540Z,12.80
2023-03-10T03:40:15.120Z,12.18
2023-03-10T03:42:43.627Z,12.50
2023-03-10T03:45:12.176Z,12.57
2023-03-10T03:47:39.042Z,12.45
2023-03-10T03:50:07.545Z,14.18
2023-03-10T03:52:34.825Z,12.63
2023-03-10T03:55:01.743Z,14.73
2023-03-10T03:57:28.716Z,10.23
2023-03-10T03:59:55.611Z,13.55
2023-03-10T04:04:49.335Z,12.98
2023-03-10T04:07:16.988Z,14.60
2023-03-10T04:09:43.931Z,16.65
2023-03-10T04:12:11.176Z,18.92
2023-03-10T04:14:38.563Z,20.02
2023-03-10T04:17:05.875Z,24.10
2023-03-10T04:19:32.778Z,25.98
2023-03-10T04:21:59.694Z,25.58
2023-03-10T04:24:26.628Z,25.42
2023-03-10T04:26:53.601Z,23.60
2023-03-10T04:29:24.508Z,30.02
2023-03-10T04:32:04.715Z,27.87
2023-03-10T04:34:32.736Z,25.58
2023-03-10T04:36:59.672Z,25.70
2023-03-10T04:39:26.642Z,25.42
2023-03-10T04:41:53.588Z,28.12
2023-03-10T04:44:30.531Z,31.70
2023-03-10T04:46:58.745Z,26.55
2023-03-10T04:49:25.653Z,33.05
2023-03-10T04:51:52.541Z,21.23
2023-03-10T04:54:19.569Z,23.92
2023-03-10T04:56:46.512Z,18.90
2023-03-10T04:59:13.428Z,15.52
2023-03-10T05:01:40.361Z,13.15
2023-03-10T05:04:07.394Z,12.63
2023-03-10T05:06:34.285Z,16.95
2023-03-10T05:09:04.248Z,13.48
2023-03-10T05:11:31.999Z,15.35
2023-03-10T05:13:58.880Z,11.88
2023-03-10T05:16:26.052Z,10.40
2023-03-10T05:18:53.491Z,13.62
2023-03-10T05:21:22.116Z,15.90
2023-03-10T05:23:49.710Z,18.02
2023-03-10T05:26:17.526Z,12.68
2023-03-10T05:28:44.608Z,17.70
2023-03-10T05:31:14.350Z,16.95
2023-03-10T05:33:41.900Z,18.77
2023-03-10T05:36:10.530Z,17.30
2023-03-10T05:38:38.010Z,18.98
2023-03-10T05:41:09.228Z,21.98
2023-03-10T05:43:37.236Z,18.05
2023-03-10T05:46:04.767Z,19.23
2023-03-10T05:48:32.052Z,20.48
2023-03-10T05:51:00.765Z,15.77
2023-03-10T05:53:28.185Z,15.82
2023-03-10T05:55:55.635Z,15.10
2023-03-10T05:58:23.641Z,13.52
2023-03-10T06:00:50.645Z,12.32
2023-03-10T06:03:18.435Z,13.73
2023-03-10T06:05:45.646Z,13.80
2023-03-10T06:08:12.525Z,13.32
2023-03-10T06:10:39.594Z,14.18
2023-03-10T06:13:06.679Z,12.00
2023-03-10T06:15:33.552Z,12.27
2023-03-10T06:18:00.425Z,10.10
2023-03-10T06:20:27.485Z,12.70
2023-03-10T06:22:54.388Z,11.80
2023-03-10T06:25:21.458Z,11.77
2023-03-10T06:27:48.533Z,13.50
2023-03-10T06:30:16.094Z,11.10
2023-03-10T06:32:43.374Z,9.13
2023-03-10T06:35:13.543Z,10.85
2023-03-10T06:37:40.684Z,10.43
2023-03-10T06:40:10.258Z,9.45
2023-03-10T06:42:37.174Z,10.23
2023-03-10T06:45:04.416Z,11.73
2023-03-10T06:47:31.347Z,9.63
2023-03-10T06:49:58.627Z,10.88
2023-03-10T06:52:25.998Z,9.50
2023-03-10T06:54:52.835Z,9.25
2023-03-10T06:57:21.045Z,8.15
2023-03-10T06:59:52.966Z,10.02
2023-03-10T07:02:28.780Z,11.43
2023-03-10T07:04:55.721Z,6.47
2023-03-10T07:07:22.625Z,9.57
2023-03-10T07:09:49.647Z,9.55
2023-03-10T07:12:16.464Z,7.65
2023-03-10T07:14:43.386Z,10.55
2023-03-10T07:17:10.308Z,8.93
2023-03-10T07:19:37.515Z,8.05
2023-03-10T07:22:04.429Z,11.95
2023-03-10T07:24:31.412Z,10.60
2023-03-10T07:27:02.120Z,9.10
2023-03-10T07:29:29.260Z,8.23
2023-03-10T07:31:56.799Z,10.13
2023-03-10T07:34:23.724Z,8.25
2023-03-10T07:36:50.607Z,8.40
2023-03-10T07:39:17.562Z,11.02
2023-03-10T07:41:44.465Z,8.52
2023-03-10T07:44:11.352Z,8.07
2023-03-10T07:46:38.277Z,10.73
2023-03-10T07:49:05.259Z,8.95
2023-03-10T07:51:32.466Z,8.05
2023-03-10T07:53:59.494Z,8.43
2023-03-10T07:56:26.394Z,8.05
2023-03-10T07:58:53.312Z,6.12
2023-03-10T08:01:21.691Z,8.52
2023-03-10T08:03:49.188Z,6.00
2023-03-10T08:06:17.953Z,7.55
2023-03-10T08:08:44.800Z,7.80
2023-03-10T08:11:11.782Z,7.35
2023-03-10T08:13:39.215Z,6.07
2023-03-10T08:16:06.937Z,5.62
2023-03-10T08:18:33.986Z,6.82
2023-03-10T08:21:04.779Z,7.70
2023-03-10T08:23:31.881Z,7.20
2023-03-10T08:26:09.331Z,6.78
2023-03-10T08:28:39.056Z,7.20
2023-03-10T08:31:12.104Z,8.23
2023-03-10T08:33:39.927Z,6.30
2023-03-10T08:36:22.061Z,11.90
2023-03-10T08:38:50.591Z,6.60
2023-03-10T08:41:26.380Z,6.87
2023-03-10T08:43:54.969Z,6.53
2023-03-10T08:46:24.819Z,8.07
2023-03-10T08:48:52.301Z,6.53
2023-03-10T08:51:19.365Z,7.90
2023-03-10T08:53:48.099Z,8.00
2023-03-10T08:56:16.054Z,5.60
2023-03-10T08:58:42.963Z,9.23
2023-03-10T09:01:10.136Z,6.68
2023-03-10T09:03:39.819Z,8.38
2023-03-10T09:06:07.317Z,7.62
2023-03-10T09:08:34.510Z,10.38
2023-03-10T09:11:01.960Z,7.75
2023-03-10T09:13:28.915Z,5.97
2023-03-10T09:15:56.057Z,8.20
2023-03-10T09:18:23.077Z,9.13
2023-03-10T09:20:50.079Z,6.70
2023-03-10T09:23:17.448Z,4.85
2023-03-10T09:25:44.580Z,4.97
2023-03-10T09:28:12.176Z,5.97
2023-03-10T09:30:41.573Z,5.32
2023-03-10T09:33:15.246Z,5.22
2023-03-10T09:35:52.455Z,5.60
2023-03-10T09:38:25.534Z,7.35
2023-03-10T09:41:03.824Z,7.25
2023-03-10T09:43:40.097Z,6.37
2023-03-10T09:46:38.674Z,5.37
2023-03-10T09:49:19.749Z,6.90
2023-03-10T09:51:48.978Z,7.07
2023-03-10T09:54:34.099Z,6.10
2023-03-10T09:57:01.769Z,7.62
2023-03-10T09:59:38.225Z,7.43
2023-03-10T10:02:24.470Z,6.68
2023-03-10T10:04:54.406Z,7.53
2023-03-10T10:07:25.969Z,8.38
2023-03-10T10:09:58.700Z,6.87
2023-03-10T10:12:26.314Z,5.07
2023-03-10T10:15:02.462Z,5.05
2023-03-10T10:17:35.470Z,5.47
2023-03-10T10:20:10.294Z,7.10
2023-03-10T10:22:38.463Z,6.53
2023-03-10T10:25:08.664Z,2.72
2023-03-10T10:27:36.736Z,6.72
2023-03-10T10:30:27.599Z,7.70
2023-03-10T10:33:14.284Z,6.55
2023-03-10T10:35:59.478Z,7.62
2023-03-10T10:38:29.435Z,5.37
2023-03-10T10:41:07.514Z,6.30
2023-03-10T10:43:43.631Z,7.05
2023-03-10T10:46:12.000Z,5.20
2023-03-10T10:48:47.389Z,7.85
2023-03-10T10:51:29.378Z,7.55
2023-03-10T10:54:01.011Z,7.28
2023-03-10T10:56:28.854Z,9.60
2023-03-10T10:59:17.693Z,5.35
2023-03-10T11:01:56.387Z,9.00
2023-03-10T11:04:25.071Z,6.90
2023-03-10T11:06:52.508Z,8.60
2023-03-10T11:09:21.420Z,5.53
2023-03-10T11:12:02.277Z,6.55
2023-03-10T11:14:35.313Z,5.95
2023-03-10T11:17:20.486Z,7.68
2023-03-10T11:20:09.390Z,6.93
2023-03-10T11:22:45.384Z,4.28
2023-03-10T11:25:29.680Z,5.75
2023-03-10T11:28:02.595Z,10.43
2023-03-10T11:30:33.467Z,6.30
2023-03-10T11:33:03.419Z,6.22
2023-03-10T11:35:43.991Z,6.10
2023-03-10T11:38:20.957Z,6.75
2023-03-10T11:40:54.962Z,6.12
2023-03-10T11:43:30.974Z,4.53
2023-03-10T11:46:13.689Z,8.02
2023-03-10T11:48:59.497Z,6.62
2023-03-10T11:51:41.356Z,9.55
2023-03-10T11:54:19.909Z,6.78
2023-03-10T11:56:47.498Z,7.75
2023-03-10T11:59:27.427Z,6.40
2023-03-10T12:02:25.028Z,5.78
2023-03-10T12:04:59.234Z,5.28
2023-03-10T12:07:32.660Z,4.72
2023-03-10T12:10:01.770Z,5.15
2023-03-10T12:12:40.796Z,5.70
2023-03-10T12:15:27.771Z,7.75
2023-03-10T12:17:55.205Z,7.10
2023-03-10T12:20:22.069Z,8.77
2023-03-10T12:23:13.750Z,7.22
2023-03-10T12:25:44.975Z,5.20
2023-03-10T12:28:17.624Z,4.35
2023-03-10T12:31:09.074Z,4.95
2023-03-10T12:33:35.938Z,6.53
2023-03-10T12:36:04.071Z,9.20
2023-03-10T12:38:49.544Z,6.18
2023-03-10T12:41:28.421Z,6.35
2023-03-10T12:43:58.426Z,8.18
2023-03-10T12:46:41.763Z,4.45
2023-03-10T12:49:20.836Z,7.75
2023-03-10T12:51:52.872Z,5.45
2023-03-10T12:54:31.461Z,4.12
2023-03-10T12:57:23.169Z,3.87
2023-03-10T12:59:59.300Z,6.20
2023-03-10T13:02:33.846Z,5.32
2023-03-10T13:05:07.508Z,5.18
2023-03-10T13:07:35.996Z,6.37
2023-03-10T13:10:03.665Z,6.25
2023-03-10T13:12:35.899Z,3.47
2023-03-10T13:15:08.310Z,5.05
2023-03-10T13:17:35.246Z,6.68
2023-03-10T13:20:36.014Z,3.03
2023-03-10T13:23:02.942Z,6.03
2023-03-10T13:25:29.870Z,6.65
2023-03-10T13:27:57.712Z,6.32
2023-03-10T13:30:29.020Z,5.60
2023-03-10T13:33:01.512Z,4.60
2023-03-10T13:35:32.558Z,8.00
2023-03-10T13:38:22.028Z,5.15
2023-03-10T13:41:00.351Z,5.50
2023-03-10T13:43:35.225Z,5.10
2023-03-10T13:46:03.606Z,6.75
2023-03-10T13:48:32.105Z,5.80
2023-03-10T13:51:07.104Z,5.93
2023-03-10T13:53:34.207Z,6.22
2023-03-10T13:56:09.937Z,8.27
2023-03-10T13:58:36.943Z,5.28
2023-03-10T14:01:05.191Z,7.28
2023-03-10T14:03:32.173Z,6.30
2023-03-10T14:05:59.115Z,5.45
2023-03-10T14:08:31.022Z,4.10
2023-03-10T14:11:22.742Z,5.93
2023-03-10T14:13:49.605Z,3.25
2023-03-10T14:16:16.537Z,8.02
2023-03-10T14:18:44.012Z,6.45
2023-03-10T14:21:31.601Z,5.75
2023-03-10T14:24:13.828Z,6.50
2023-03-10T14:26:41.149Z,4.65
2023-03-10T14:29:26.931Z,6.40
2023-03-10T14:31:53.808Z,4.20
2023-03-10T14:34:20.808Z,5.43
2023-03-10T14:36:47.701Z,6.35
2023-03-10T14:39:14.752Z,7.25
2023-03-10T14:41:41.681Z,3.65
2023-03-10T14:44:09.922Z,8.18
2023-03-10T14:46:36.963Z,6.47
2023-03-10T14:49:06.709Z,5.28
2023-03-10T14:51:36.332Z,4.75
2023-03-10T14:54:04.170Z,4.95
2023-03-10T14:56:32.149Z,7.07
2023-03-10T14:59:13.637Z,5.78
2023-03-10T15:01:40.900Z,8.57
2023-03-10T15:04:15.551Z,6.57
2023-03-10T15:06:43.251Z,7.22
2023-03-10T15:09:10.742Z,4.20
2023-03-10T15:11:38.176Z,4.30
2023-03-10T15:14:16.664Z,5.20
2023-03-10T15:16:43.758Z,6.30
2023-03-10T15:19:27.515Z,3.97
2023-03-10T15:21:55.143Z,4.75
2023-03-10T15:24:22.002Z,5.37
2023-03-10T15:26:48.894Z,5.60
2023-03-10T15:29:20.937Z,6.12
2023-03-10T15:31:47.823Z,3.35
2023-03-10T15:34:14.727Z,6.00
2023-03-10T15:36:41.611Z,10.30
2023-03-10T15:39:32.155Z,5.50
2023-03-10T15:42:00.106Z,5.32
2023-03-10T15:44:26.990Z,7.62
2023-03-10T15:46:55.132Z,6.07
2023-03-10T15:49:55.221Z,5.72
2023-03-10T15:52:23.550Z,5.65
2023-03-10T15:54:50.680Z,6.60
2023-03-10T15:57:17.610Z,5.40
2023-03-10T15:59:44.540Z,7.32
2023-03-10T16:02:12.848Z,7.32
2023-03-10T16:04:39.852Z,6.18
2023-03-10T16:07:07.401Z,4.75
2023-03-10T16:09:34.346Z,4.15
2023-03-10T16:12:02.429Z,6.22
2023-03-10T16:15:02.463Z,5.72
2023-03-10T16:17:29.720Z,7.70
2023-03-10T16:19:56.565Z,5.15
2023-03-10T16:22:23.510Z,6.80
2023-03-10T16:24:50.418Z,6.07
2023-03-10T16:27:17.353Z,7.95
2023-03-10T16:29:44.282Z,7.12
2023-03-10T16:32:12.262Z,6.93
2023-03-10T16:34:39.144Z,12.02
2023-03-10T16:37:08.262Z,12.40
2023-03-10T16:39:35.343Z,15.40
2023-03-10T16:42:03.962Z,10.60
2023-03-10T16:44:30.837Z,12.18
2023-03-10T16:46:57.796Z,11.85
2023-03-10T16:49:24.657Z,10.20
2023-03-10T16:51:51.537Z,10.65
2023-03-10T16:54:20.338Z,5.15
2023-03-10T16:56:50.237Z,5.93
2023-03-10T16:59:19.594Z,5.07
2023-03-10T17:01:47.392Z,5.53
2023-03-10T17:04:15.335Z,4.78
2023-03-10T17:06:42.532Z,4.87
2023-03-10T17:09:11.000Z,3.97
2023-03-10T17:11:44.888Z,6.55
2023-03-10T17:14:14.425Z,5.90
2023-03-10T17:16:42.397Z,6.57
2023-03-10T17:19:15.855Z,8.63
2023-03-10T17:21:46.080Z,5.50
2023-03-10T17:24:14.805Z,6.47
2023-03-10T17:26:42.034Z,6.15
2023-03-10T17:29:09.452Z,8.20
2023-03-10T17:31:37.127Z,4.18
2023-03-10T17:34:07.445Z,7.18
2023-03-10T17:36:34.695Z,4.97
2023-03-10T17:39:03.062Z,7.60
2023-03-10T17:41:31.269Z,6.05
2023-03-10T17:43:58.163Z,6.62
2023-03-10T17:46:27.963Z,7.50
2023-03-10T17:48:55.319Z,8.55
2023-03-10T17:51:26.359Z,9.73
2023-03-10T17:53:54.523Z,7.18
2023-03-10T17:56:22.305Z,8.05
2023-03-10T17:58:49.980Z,8.43
2023-03-10T18:01:20.893Z,7.82
2023-03-10T18:03:48.557Z,8.57
2023-03-10T18:06:27.070Z,6.10
2023-03-10T18:08:56.180Z,7.90
2023-03-10T18:11:24.688Z,7.47
2023-03-10T18:13:51.962Z,7.00
2023-03-10T18:16:24.215Z,8.85
2023-03-10T18:18:51.182Z,9.60
2023-03-10T18:21:19.338Z,12.10
2023-03-10T18:23:47.175Z,12.55
2023-03-10T18:26:17.231Z,11.05
2023-03-10T18:28:44.236Z,11.05
2023-03-10T18:31:17.499Z,12.65
2023-03-10T18:33:44.432Z,10.77
2023-03-10T18:36:13.825Z,11.55
2023-03-10T18:38:41.197Z,7.55
2023-03-10T18:41:08.148Z,6.90
2023-03-10T18:43:35.137Z,6.95
2023-03-10T18:46:02.246Z,6.47
2023-03-10T18:48:29.162Z,6.28
2023-03-10T18:50:57.952Z,8.10
2023-03-10T18:53:25.914Z,6.90
2023-03-10T18:55:55.121Z,7.60
2023-03-10T18:58:22.772Z,8.90
2023-03-10T19:00:50.494Z,7.82
2023-03-10T19:03:18.475Z,10.63
2023-03-10T19:05:45.557Z,11.40
2023-03-10T19:08:12.447Z,26.23
2023-03-10T19:10:40.038Z,29.08
2023-03-10T19:13:07.985Z,27.92
2023-03-10T19:15:37.354Z,23.38
2023-03-10T19:18:04.721Z,23.70
2023-03-10T19:20:31.619Z,20.90
2023-03-10T19:22:58.512Z,21.55
2023-03-10T19:25:25.395Z,16.55
2023-03-10T19:27:52.342Z,15.88
2023-03-10T19:30:20.305Z,19.17
2023-03-10T19:32:47.930Z,19.15
2023-03-10T19:35:15.763Z,13.38
2023-03-10T19:37:46.306Z,9.25
2023-03-10T19:40:17.325Z,11.15
2023-03-10T19:42:45.040Z,10.18
2023-03-10T19:45:13.983Z,9.05
2023-03-10T19:47:41.851Z,8.80
2023-03-10T19:50:10.976Z,8.85
2023-03-10T19:52:39.136Z,9.13
2023-03-10T19:55:09.697Z,8.27
2023-03-10T19:57:37.015Z,8.63
2023-03-10T20:00:07.441Z,9.98
2023-03-10T20:02:34.586Z,7.10
2023-03-10T20:05:01.568Z,7.05
2023-03-10T20:07:28.529Z,7.30
2023-03-10T20:09:55.413Z,7.10
2023-03-10T20:12:22.583Z,8.70
2023-03-10T20:14:49.664Z,6.90
2023-03-10T20:17:18.780Z,9.93
2023-03-10T20:19:46.183Z,8.18
2023-03-10T20:22:15.351Z,5.97
2023-03-10T20:24:42.217Z,6.18
2023-03-10T20:27:09.085Z,7.18
2023-03-10T20:29:38.537Z,7.62
2023-03-10T20:32:05.747Z,6.45
2023-03-10T20:34:32.822Z,8.18
2023-03-10T20:36:59.740Z,11.00
2023-03-10T20:39:26.619Z,7.00
2023-03-10T20:41:53.497Z,5.70
2023-03-10T20:44:22.826Z,5.87
2023-03-10T20:46:49.738Z,6.03
2023-03-10T20:49:16.689Z,6.47
2023-03-10T20:51:43.615Z,10.13
2023-03-10T20:54:10.466Z,6.40
2023-03-10T20:56:37.334Z,6.62
2023-03-10T20:59:04.658Z,6.00
2023-03-10T21:01:31.732Z,8.15
2023-03-10T21:03:58.749Z,7.75
2023-03-10T21:06:27.190Z,8.18
2023-03-10T21:08:54.326Z,7.80
2023-03-10T21:11:21.644Z,6.18
2023-03-10T21:13:48.565Z,6.10
2023-03-10T21:16:15.712Z,4.10
2023-03-10T21:18:42.624Z,4.72
2023-03-10T21:21:10.002Z,5.53
2023-03-10T21:23:37.987Z,7.40
2023-03-10T21:26:19.731Z,7.95
2023-03-10T21:28:47.136Z,7.12
2023-03-10T21:31:14.404Z,6.65
2023-03-10T21:33:44.141Z,6.55
2023-03-10T21:36:22.379Z,5.57
2023-03-10T21:38:50.283Z,7.72
2023-03-10T21:41:21.783Z,5.65
2023-03-10T21:43:48.994Z,5.35
2023-03-10T21:46:18.887Z,6.65
2023-03-10T21:48:45.776Z,7.53
2023-03-10T21:51:16.895Z,8.75
2023-03-10T21:53:43.967Z,7.18
2023-03-10T21:56:13.910Z,6.68
2023-03-10T21:58:40.854Z,7.75
2023-03-10T22:01:12.589Z,6.90
2023-03-10T22:03:40.282Z,8.77
2023-03-10T22:06:07.261Z,7.55
2023-03-10T22:08:35.564Z,9.18
2023-03-10T22:11:02.683Z,8.82
2023-03-10T22:13:29.535Z,8.15
2023-03-10T22:15:56.422Z,7.68
2023-03-10T22:18:23.261Z,7.60
2023-03-10T22:20:50.179Z,8.25
2023-03-10T22:23:17.135Z,8.07
2023-03-10T22:25:44.191Z,7.60
2023-03-10T22:28:11.114Z,9.27
2023-03-10T22:30:39.026Z,9.80
2023-03-10T22:33:09.079Z,9.95
2023-03-10T22:35:37.575Z,8.23
2023-03-10T22:38:05.272Z,8.27
2023-03-10T22:40:32.813Z,8.15
2023-03-10T22:42:59.791Z,9.15
2023-03-10T22:45:32.455Z,9.63
2023-03-10T22:48:01.701Z,10.40
2023-03-10T22:50:35.918Z,24.40
2023-03-10T22:53:05.503Z,16.80
2023-03-10T22:55:35.775Z,8.85
2023-03-10T22:58:07.232Z,8.82
2023-03-10T23:00:34.462Z,8.35
2023-03-10T23:03:01.662Z,9.23
2023-03-10T23:05:29.055Z,7.07
2023-03-10T23:07:56.015Z,9.98
2023-03-10T23:10:30.821Z,9.40
2023-03-10T23:13:02.955Z,7.50
2023-03-10T23:15:33.518Z,8.70
2023-03-10T23:18:00.515Z,8.63
2023-03-10T23:20:30.381Z,6.53
2023-03-10T23:22:59.246Z,8.10
2023-03-10T23:25:32.689Z,8.73
2023-03-10T23:27:59.951Z,7.05
2023-03-10T23:30:27.831Z,8.77
2023-03-10T23:32:55.024Z,4.28
2023-03-10T23:35:25.867Z,5.20
2023-03-10T23:37:52.748Z,3.62
2023-03-10T23:40:21.268Z,4.25
2023-03-10T23:42:48.159Z,4.97
2023-03-10T23:45:18.145Z,5.20
2023-03-10T23:47:45.491Z,4.30
2023-03-10T23:50:49.805Z,7.15
2023-03-10T23:53:20.898Z,5.75
2023-03-10T23:55:49.579Z,3.75
2023-03-10T23:58:24.193Z,3.10
